createdAt,value
2018-11-21T00:00:19.915Z,0.40
2018-11-21T00:02:49.208Z,0.40
2018-11-21T00:05:17.639Z,0.40
2018-11-21T00:07:46.358Z,0.40
2018-11-21T00:10:14.824Z,0.40
2018-11-21T00:12:49.008Z,0.30
2018-11-21T00:15:17.412Z,0.30
2018-11-21T00:17:46.077Z,0.20
2018-11-21T00:20:14.986Z,0.20
2018-11-21T00:22:43.360Z,0.20
2018-11-21T00:25:11.775Z,0.20
2018-11-21T00:27:40.160Z,0.10
2018-11-21T00:30:10.693Z,0.10
2018-11-21T00:32:39.174Z,0.10
2018-11-21T00:35:08.734Z,0.10
2018-11-21T00:37:37.102Z,-0.10
2018-11-21T00:40:11.037Z,-0.10
2018-11-21T00:42:39.442Z,-0.10
2018-11-21T00:45:08.795Z,0.00
2018-11-21T00:47:37.502Z,0.00
2018-11-21T00:50:06.891Z,0.00
2018-11-21T00:52:36.414Z,0.00
2018-11-21T00:55:05.017Z,0.10
2018-11-21T00:57:33.383Z,0.10
2018-11-21T01:00:01.767Z,0.10
2018-11-21T01:02:30.117Z,0.10
2018-11-21T01:04:58.737Z,0.10
2018-11-21T01:07:27.114Z,0.20
2018-11-21T01:09:55.498Z,0.20
2018-11-21T01:12:24.175Z,0.20
2018-11-21T01:14:52.561Z,0.10
2018-11-21T01:17:20.911Z,0.00
2018-11-21T01:19:49.536Z,-0.10
2018-11-21T01:22:18.304Z,-0.10
2018-11-21T01:24:46.941Z,-0.20
2018-11-21T01:27:15.723Z,-0.20
2018-11-21T01:29:44.117Z,-0.30
2018-11-21T01:32:12.485Z,-0.30
2018-11-21T01:34:41.378Z,-0.40
2018-11-21T01:37:09.700Z,-0.40
2018-11-21T01:39:38.067Z,-0.30
2018-11-21T01:42:06.709Z,-0.20
2018-11-21T01:44:35.114Z,-0.10
2018-11-21T01:47:03.773Z,-0.10
2018-11-21T01:49:32.494Z,-0.20
2018-11-21T01:52:01.146Z,-0.30
2018-11-21T01:54:29.509Z,-0.40
2018-11-21T01:56:58.056Z,-0.30
2018-11-21T01:59:27.024Z,-0.30
2018-11-21T02:01:55.743Z,-0.30
2018-11-21T02:04:24.116Z,-0.30
2018-11-21T02:06:52.870Z,-0.20
2018-11-21T02:09:21.237Z,-0.10
2018-11-21T02:11:49.616Z,-0.10
2018-11-21T02:14:18.625Z,-0.10
2018-11-21T02:16:47.282Z,-0.20
2018-11-21T02:19:15.671Z,-0.20
2018-11-21T02:21:44.027Z,-0.40
2018-11-21T02:24:12.683Z,-0.70
2018-11-21T02:26:41.348Z,-0.80
2018-11-21T02:29:09.999Z,-0.80
2018-11-21T02:31:38.804Z,-0.80
2018-11-21T02:34:07.270Z,-0.90
2018-11-21T02:36:35.788Z,-0.90
2018-11-21T02:39:06.278Z,-0.90
2018-11-21T02:41:34.766Z,-0.80
2018-11-21T02:44:03.118Z,-0.80
2018-11-21T02:46:31.493Z,-0.80
2018-11-21T02:49:00.506Z,-0.80
2018-11-21T02:51:28.930Z,-0.80
2018-11-21T02:53:57.315Z,-0.70
2018-11-21T02:57:03.744Z,-0.70
2018-11-21T02:59:32.561Z,-0.90
2018-11-21T03:02:01.411Z,-1.00
2018-11-21T03:04:30.139Z,-1.10
2018-11-21T03:06:58.502Z,-1.10
2018-11-21T03:09:26.892Z,-1.00
2018-11-21T03:11:55.367Z,-0.90
2018-11-21T03:14:23.931Z,-0.80
2018-11-21T03:16:52.678Z,-1.10
2018-11-21T03:19:21.202Z,-1.30
2018-11-21T03:21:49.576Z,-1.30
2018-11-21T03:24:17.933Z,-1.10
2018-11-21T03:26:46.331Z,-0.90
2018-11-21T03:29:15.121Z,-0.80
2018-11-21T03:31:44.309Z,-0.90
2018-11-21T03:34:12.673Z,-1.00
2018-11-21T03:36:47.261Z,-1.10
2018-11-21T03:39:16.728Z,-1.50
2018-11-21T03:41:45.522Z,-1.70
2018-11-21T03:44:14.204Z,-2.10
2018-11-21T03:46:44.444Z,-2.30
2018-11-21T03:49:12.824Z,-2.20
2018-11-21T03:51:41.184Z,-2.30
2018-11-21T03:54:09.802Z,-2.20
2018-11-21T03:56:38.765Z,-2.10
2018-11-21T03:59:07.990Z,-2.10
2018-11-21T04:01:36.640Z,-1.90
2018-11-21T04:04:05.667Z,-2.00
2018-11-21T04:06:34.376Z,-2.00
2018-11-21T04:09:03.105Z,-1.90
2018-11-21T04:11:31.481Z,-1.70
2018-11-21T04:14:01.320Z,-1.40
2018-11-21T04:16:29.760Z,-1.10
2018-11-21T04:18:58.453Z,-0.90
2018-11-21T04:21:27.870Z,-0.70
2018-11-21T04:23:57.137Z,-0.60
2018-11-21T04:26:25.861Z,-0.60
2018-11-21T04:28:54.498Z,-0.70
2018-11-21T04:31:22.864Z,-1.10
2018-11-21T04:33:51.279Z,-1.00
2018-11-21T04:36:19.660Z,-0.80
2018-11-21T04:38:48.060Z,-0.60
2018-11-21T04:41:16.770Z,-0.50
2018-11-21T04:43:45.143Z,-0.70
2018-11-21T04:46:15.125Z,-0.80
2018-11-21T04:48:44.708Z,-0.80
2018-11-21T04:51:14.332Z,-0.70
2018-11-21T04:53:43.243Z,-0.50
2018-11-21T04:56:12.034Z,-0.50
2018-11-21T04:58:40.899Z,-0.50
2018-11-21T05:01:09.379Z,-0.60
2018-11-21T05:03:37.767Z,-0.60
2018-11-21T05:06:06.506Z,-0.70
2018-11-21T05:08:34.888Z,-0.80
2018-11-21T05:11:03.334Z,-0.80
2018-11-21T05:13:31.957Z,-0.80
2018-11-21T05:16:00.342Z,-0.90
2018-11-21T05:18:29.618Z,-0.80
2018-11-21T05:20:58.000Z,-0.70
2018-11-21T05:23:26.734Z,-0.70
2018-11-21T05:25:55.086Z,-0.70
2018-11-21T05:28:23.483Z,-0.60
2018-11-21T05:30:51.856Z,-0.60
2018-11-21T05:33:20.251Z,-0.60
2018-11-21T05:35:48.932Z,-0.70
2018-11-21T05:38:17.677Z,-1.50
2018-11-21T05:40:46.408Z,-2.40
2018-11-21T05:43:15.223Z,-2.30
2018-11-21T05:45:43.886Z,-2.20
2018-11-21T05:48:12.240Z,-2.40
2018-11-21T05:50:41.268Z,-2.40
2018-11-21T05:53:10.271Z,-2.50
2018-11-21T05:55:38.955Z,-2.30
2018-11-21T05:58:07.661Z,-2.00
2018-11-21T06:00:36.402Z,-1.70
2018-11-21T06:03:04.844Z,-1.50
2018-11-21T06:05:33.543Z,-1.90
2018-11-21T06:08:02.313Z,-2.00
2018-11-21T06:10:30.969Z,-1.80
2018-11-21T06:12:59.650Z,-1.40
2018-11-21T06:15:28.094Z,-1.10
2018-11-21T06:17:56.824Z,-1.00
2018-11-21T06:20:25.233Z,-1.60
2018-11-21T06:22:53.650Z,-1.80
2018-11-21T06:25:22.323Z,-1.90
2018-11-21T06:27:51.432Z,-1.70
2018-11-21T06:30:19.810Z,-1.70
2018-11-21T06:32:48.209Z,-2.00
2018-11-21T06:35:17.050Z,-2.10
2018-11-21T06:37:45.440Z,-2.00
2018-11-21T06:40:15.272Z,-1.90
2018-11-21T06:42:57.454Z,-1.80
2018-11-21T06:45:27.108Z,-1.50
2018-11-21T06:47:55.857Z,-1.20
2018-11-21T06:50:24.638Z,-0.90
2018-11-21T06:52:54.815Z,-0.90
2018-11-21T06:55:23.355Z,-0.90
2018-11-21T06:57:52.153Z,-0.80
2018-11-21T07:00:21.237Z,-0.70
2018-11-21T07:02:49.600Z,-0.60
2018-11-21T07:05:18.306Z,-0.60
2018-11-21T07:07:46.994Z,-0.50
2018-11-21T07:10:16.331Z,-0.40
2018-11-21T07:12:45.300Z,-0.20
2018-11-21T07:15:14.486Z,-0.10
2018-11-21T07:17:42.883Z,0.10
2018-11-21T07:20:12.705Z,0.10
2018-11-21T07:22:41.537Z,0.20
2018-11-21T07:25:13.100Z,0.30
2018-11-21T07:27:41.721Z,0.40
2018-11-21T07:30:12.258Z,0.50
2018-11-21T07:32:40.665Z,0.50
2018-11-21T07:35:09.331Z,0.60
2018-11-21T07:37:38.888Z,0.60
2018-11-21T07:40:09.172Z,0.60
2018-11-21T07:42:37.697Z,0.70
2018-11-21T07:45:08.889Z,0.70
2018-11-21T07:47:38.196Z,0.80
2018-11-21T07:50:09.504Z,0.70
2018-11-21T07:52:38.020Z,0.80
2018-11-21T07:55:06.796Z,0.80
2018-11-21T07:57:39.975Z,0.90
2018-11-21T08:00:59.904Z,1.00
2018-11-21T08:03:30.152Z,1.00
2018-11-21T08:06:04.591Z,1.00
2018-11-21T08:08:58.430Z,1.10
2018-11-21T08:11:47.011Z,1.10
2018-11-21T08:14:37.720Z,1.10
2018-11-21T08:17:28.438Z,1.10
2018-11-21T08:20:25.363Z,1.00
2018-11-21T08:23:18.970Z,1.00
2018-11-21T08:26:06.484Z,1.10
2018-11-21T08:28:34.879Z,1.00
2018-11-21T08:31:03.245Z,0.90
2018-11-21T08:33:34.113Z,1.00
2018-11-21T08:36:00.899Z,1.00
2018-11-21T08:38:29.329Z,1.00
2018-11-21T08:40:57.716Z,1.00
2018-11-21T08:43:26.545Z,1.00
2018-11-21T08:45:55.204Z,1.10
2018-11-21T08:48:23.948Z,1.00
2018-11-21T08:50:52.537Z,1.10
2018-11-21T08:53:21.229Z,1.00
2018-11-21T08:55:50.015Z,1.10
2018-11-21T08:58:18.938Z,1.10
2018-11-21T09:00:47.869Z,1.10
2018-11-21T09:03:16.273Z,1.20
2018-11-21T09:05:44.625Z,1.20
2018-11-21T09:08:13.090Z,1.30
2018-11-21T09:10:41.453Z,1.30
2018-11-21T09:13:10.367Z,1.40
2018-11-21T09:15:38.708Z,1.40
2018-11-21T09:18:07.682Z,1.30
2018-11-21T09:20:36.383Z,1.40
2018-11-21T09:23:04.857Z,1.30
2018-11-21T09:25:33.244Z,1.40
2018-11-21T09:28:01.825Z,1.40
2018-11-21T09:30:30.175Z,1.40
2018-11-21T09:32:59.280Z,1.40
2018-11-21T09:35:27.628Z,1.50
2018-11-21T09:37:56.293Z,1.50
2018-11-21T09:40:25.358Z,1.60
2018-11-21T09:42:55.425Z,1.60
2018-11-21T09:45:24.408Z,1.50
2018-11-21T09:47:52.789Z,1.50
2018-11-21T09:50:26.423Z,1.50
2018-11-21T09:52:54.794Z,1.50
2018-11-21T09:55:23.177Z,1.60
2018-11-21T09:57:51.552Z,1.60
2018-11-21T10:00:56.700Z,1.60
2018-11-21T10:03:29.873Z,1.50
2018-11-21T10:06:01.859Z,1.70
2018-11-21T10:08:36.303Z,1.70
2018-11-21T10:11:05.136Z,1.70
2018-11-21T10:13:33.910Z,1.70
2018-11-21T10:16:03.318Z,1.60
2018-11-21T10:18:32.203Z,1.70
2018-11-21T10:21:01.152Z,1.70
2018-11-21T10:23:29.534Z,1.70
2018-11-21T10:25:57.885Z,1.80
2018-11-21T10:28:26.357Z,1.90
2018-11-21T10:30:55.215Z,1.80
2018-11-21T10:33:23.558Z,1.70
2018-11-21T10:35:52.085Z,1.80
2018-11-21T10:38:20.858Z,1.90
2018-11-21T10:40:49.174Z,2.00
2018-11-21T10:43:17.548Z,2.00
2018-11-21T10:45:46.229Z,2.00
2018-11-21T10:48:14.597Z,2.10
2018-11-21T10:50:43.323Z,1.90
2018-11-21T10:53:11.992Z,1.80
2018-11-21T10:55:40.640Z,1.80
2018-11-21T10:58:09.079Z,1.80
2018-11-21T11:00:55.149Z,1.80
2018-11-21T11:03:25.675Z,1.90
2018-11-21T11:06:22.818Z,1.90
2018-11-21T11:09:10.468Z,1.90
2018-11-21T11:11:56.762Z,1.90
2018-11-21T11:14:48.479Z,1.80
2018-11-21T11:17:26.368Z,1.80
2018-11-21T11:20:13.070Z,1.80
2018-11-21T11:23:07.791Z,1.80
2018-11-21T11:25:53.933Z,1.70
2018-11-21T11:28:40.046Z,1.70
2018-11-21T11:31:15.942Z,1.60
2018-11-21T11:34:12.468Z,1.60
2018-11-21T11:37:12.598Z,1.60
2018-11-21T11:40:00.449Z,1.60
2018-11-21T11:42:48.283Z,1.60
2018-11-21T11:45:34.871Z,1.60
2018-11-21T11:48:29.004Z,1.60
2018-11-21T11:51:16.543Z,1.70
2018-11-21T11:53:58.780Z,1.60
2018-11-21T11:56:46.289Z,1.60
2018-11-21T11:59:48.846Z,1.70
2018-11-21T12:02:25.022Z,1.70
2018-11-21T12:05:25.032Z,1.70
2018-11-21T12:08:12.162Z,1.60
2018-11-21T12:10:57.258Z,1.70
2018-11-21T12:13:44.020Z,1.70
2018-11-21T12:16:34.367Z,1.80
2018-11-21T12:19:20.727Z,1.80
2018-11-21T12:22:20.459Z,1.80
2018-11-21T12:25:10.933Z,1.80
2018-11-21T12:27:57.063Z,1.80
2018-11-21T12:30:56.740Z,1.70
2018-11-21T12:33:40.420Z,1.60
2018-11-21T12:36:26.565Z,1.60
2018-11-21T12:39:13.158Z,1.60
2018-11-21T12:41:59.473Z,1.60
2018-11-21T12:44:53.401Z,1.50
2018-11-21T12:47:40.917Z,1.50
2018-11-21T12:50:21.468Z,1.50
2018-11-21T12:53:08.191Z,1.50
2018-11-21T12:56:01.744Z,1.50
2018-11-21T12:58:58.468Z,1.40
2018-11-21T13:02:01.036Z,1.50
2018-11-21T13:04:41.932Z,1.50
2018-11-21T13:07:32.498Z,1.50
2018-11-21T13:10:20.420Z,1.50
2018-11-21T13:13:17.195Z,1.50
2018-11-21T13:16:06.605Z,1.50
2018-11-21T13:18:51.774Z,1.50
2018-11-21T13:21:42.656Z,1.60
2018-11-21T13:24:29.307Z,1.60
2018-11-21T13:27:15.257Z,1.60
2018-11-21T13:30:01.454Z,1.70
2018-11-21T13:32:48.369Z,1.80
2018-11-21T13:35:37.713Z,1.80
2018-11-21T13:38:23.953Z,1.80
2018-11-21T13:41:11.509Z,1.70
2018-11-21T13:44:02.046Z,1.80
2018-11-21T13:47:01.795Z,1.80
2018-11-21T13:49:42.961Z,1.70
2018-11-21T13:52:29.437Z,1.60
2018-11-21T13:54:59.155Z,1.60
2018-11-21T13:57:27.959Z,1.50
2018-11-21T13:59:56.757Z,1.60
2018-11-21T14:02:25.425Z,1.70
2018-11-21T14:04:53.865Z,1.70
2018-11-21T14:07:22.196Z,1.70
2018-11-21T14:09:50.574Z,1.80
2018-11-21T14:12:19.578Z,1.70
2018-11-21T14:14:47.927Z,1.70
2018-11-21T14:17:16.659Z,1.70
2018-11-21T14:19:45.033Z,1.60
2018-11-21T14:22:13.484Z,1.60
2018-11-21T14:24:42.208Z,1.60
2018-11-21T14:27:10.637Z,1.70
2018-11-21T14:29:39.052Z,1.70
2018-11-21T14:32:07.443Z,1.60
2018-11-21T14:34:36.146Z,1.60
2018-11-21T14:37:04.549Z,1.50
2018-11-21T14:39:32.953Z,1.50
2018-11-21T14:42:01.332Z,1.40
2018-11-21T14:44:29.996Z,1.40
2018-11-21T14:46:58.933Z,1.40
2018-11-21T14:49:27.324Z,1.30
2018-11-21T14:51:55.822Z,1.40
2018-11-21T14:54:24.191Z,1.40
2018-11-21T14:56:52.631Z,1.40
2018-11-21T14:59:21.215Z,1.40
2018-11-21T15:01:49.615Z,1.40
2018-11-21T15:04:18.354Z,1.50
2018-11-21T15:06:46.734Z,1.50
2018-11-21T15:09:15.418Z,1.50
2018-11-21T15:11:44.263Z,1.50
2018-11-21T15:14:12.759Z,1.50
2018-11-21T15:16:41.288Z,1.50
2018-11-21T15:19:09.696Z,1.50
2018-11-21T15:21:38.543Z,1.50
2018-11-21T15:24:07.428Z,1.50
2018-11-21T15:26:36.052Z,1.40
2018-11-21T15:29:04.758Z,1.40
2018-11-21T15:31:33.174Z,1.30
2018-11-21T15:34:01.617Z,1.40
2018-11-21T15:36:30.278Z,1.40
2018-11-21T15:38:58.671Z,1.40
2018-11-21T15:41:27.409Z,1.30
2018-11-21T15:43:55.787Z,1.40
2018-11-21T15:46:24.181Z,1.40
2018-11-21T15:48:52.544Z,1.40
2018-11-21T15:51:21.046Z,1.30
2018-11-21T15:53:49.658Z,1.30
2018-11-21T15:56:18.009Z,1.20
2018-11-21T15:58:55.406Z,1.20
2018-11-21T16:01:24.066Z,1.20
2018-11-21T16:03:53.080Z,1.20
2018-11-21T16:06:21.453Z,1.20
2018-11-21T16:08:49.825Z,1.10
2018-11-21T16:11:18.211Z,1.20
2018-11-21T16:13:46.588Z,1.10
2018-11-21T16:16:14.950Z,1.10
2018-11-21T16:18:44.043Z,1.10
2018-11-21T16:21:12.738Z,1.10
2018-11-21T16:23:41.152Z,1.10
2018-11-21T16:26:09.923Z,1.20
2018-11-21T16:28:38.580Z,1.20
2018-11-21T16:31:06.935Z,1.20
2018-11-21T16:33:35.313Z,1.30
2018-11-21T16:36:03.740Z,1.20
2018-11-21T16:38:32.195Z,1.20
2018-11-21T16:41:00.728Z,1.20
2018-11-21T16:43:29.669Z,1.20
2018-11-21T16:45:58.821Z,1.20
2018-11-21T16:48:27.505Z,1.20
2018-11-21T16:50:56.152Z,1.30
2018-11-21T16:53:24.501Z,1.30
2018-11-21T16:55:52.895Z,1.30
2018-11-21T16:58:21.319Z,1.30
2018-11-21T17:00:49.996Z,1.30
2018-11-21T17:03:19.153Z,1.20
2018-11-21T17:05:47.533Z,1.20
2018-11-21T17:08:15.920Z,1.10
2018-11-21T17:10:44.324Z,1.00
2018-11-21T17:13:12.715Z,1.00
2018-11-21T17:15:41.354Z,1.00
2018-11-21T17:18:09.732Z,1.00
2018-11-21T17:20:40.560Z,1.00
2018-11-21T17:23:08.936Z,1.00
2018-11-21T17:25:38.391Z,1.00
2018-11-21T17:28:07.142Z,1.00
2018-11-21T17:30:36.026Z,1.00
2018-11-21T17:33:05.327Z,1.10
2018-11-21T17:35:37.423Z,1.20
2018-11-21T17:38:05.828Z,1.20
2018-11-21T17:40:36.102Z,1.20
2018-11-21T17:43:04.489Z,1.20
2018-11-21T17:45:32.974Z,1.20
2018-11-21T17:48:01.480Z,1.20
2018-11-21T17:50:29.884Z,1.20
2018-11-21T17:52:59.852Z,1.20
2018-11-21T17:55:29.571Z,1.20
2018-11-21T17:57:58.570Z,1.20
2018-11-21T18:00:28.462Z,1.20
2018-11-21T18:02:56.953Z,1.20
2018-11-21T18:05:27.486Z,1.20
2018-11-21T18:07:56.089Z,1.20
2018-11-21T18:10:26.317Z,1.20
2018-11-21T18:12:55.034Z,1.20
2018-11-21T18:15:25.129Z,1.20
2018-11-21T18:17:54.859Z,1.20
2018-11-21T18:20:23.899Z,1.20
2018-11-21T18:22:53.043Z,1.20
2018-11-21T18:25:23.523Z,1.10
2018-11-21T18:27:51.919Z,1.10
2018-11-21T18:30:21.893Z,1.10
2018-11-21T18:32:50.299Z,1.10
2018-11-21T18:35:20.131Z,1.20
2018-11-21T18:37:49.145Z,1.10
2018-11-21T18:40:19.523Z,1.20
2018-11-21T18:42:48.600Z,1.20
2018-11-21T18:45:19.748Z,1.20
2018-11-21T18:47:48.755Z,1.30
2018-11-21T18:50:18.315Z,1.30
2018-11-21T18:52:47.646Z,1.30
2018-11-21T18:55:18.495Z,1.30
2018-11-21T18:58:22.935Z,1.30
2018-11-21T19:00:52.987Z,1.20
2018-11-21T19:03:21.394Z,1.30
2018-11-21T19:05:50.252Z,1.30
2018-11-21T19:08:18.635Z,1.30
2018-11-21T19:10:47.066Z,1.30
2018-11-21T19:13:15.796Z,1.30
2018-11-21T19:15:44.418Z,1.40
2018-11-21T19:18:12.867Z,1.40
2018-11-21T19:20:41.253Z,1.40
2018-11-21T19:23:09.640Z,1.50
2018-11-21T19:25:38.030Z,1.50
2018-11-21T19:28:06.388Z,1.50
2018-11-21T19:30:34.879Z,1.50
2018-11-21T19:33:03.261Z,1.50
2018-11-21T19:35:31.955Z,1.50
2018-11-21T19:38:00.869Z,1.50
2018-11-21T19:40:30.047Z,1.50
2018-11-21T19:42:58.452Z,1.50
2018-11-21T19:45:26.839Z,1.60
2018-11-21T19:47:55.561Z,1.50
2018-11-21T19:50:24.152Z,1.50
2018-11-21T19:52:52.867Z,1.50
2018-11-21T19:55:23.521Z,1.50
2018-11-21T19:57:52.170Z,1.50
2018-11-21T20:00:22.492Z,1.40
2018-11-21T20:02:51.238Z,1.50
2018-11-21T20:05:20.116Z,1.50
2018-11-21T20:07:48.961Z,1.40
2018-11-21T20:10:18.170Z,1.40
2018-11-21T20:12:47.050Z,1.40
2018-11-21T20:15:16.984Z,1.40
2018-11-21T20:17:47.194Z,1.40
2018-11-21T20:20:17.139Z,1.40
2018-11-21T20:22:46.514Z,1.40
2018-11-21T20:25:16.620Z,1.40
2018-11-21T20:27:45.088Z,1.50
